Watsonville, Pennsylvania
Current Conditions -  °F | °C
As of 6:54 AM on Friday 19 Dec 2014 (Local Time) from KIPT Reporting Station
Overcast Overcast  
Wind Chill: 27°   Ceiling: 2800
Heat Index: 34°   Visibility: 10mi
Dew Point: 23°   Wind: 8mph
Humidity: 64%   Direction: 300°WNW
Pressure: 30.06"   Gusts: NA
Location:  41.118°N, 76.8398°W
Report Text: KIPT 191154Z 30007KT 10SM OVC028 01/M05 A3006 RMK AO2 SLP183 T00111050 10011 20011 53009
Loading
Personal Weather Stations






























Interactive Weather Map New forecast layout! Learn more

10-Day Weather Forecast

Advertisements
Track Severe Weather on mobile